sensor_id;sensor_type;location;lat;lon;timestamp;P1;durP1;ratioP1;P2;durP2;ratioP2
78209;SDS011;67485;48.816;9.930;2024-01-30T00:02:08;6.97;;;4.07;;
78209;SDS011;67485;48.816;9.930;2024-01-30T00:04:34;8.40;;;4.22;;
78209;SDS011;67485;48.816;9.930;2024-01-30T00:07:00;7.95;;;4.35;;
78209;SDS011;67485;48.816;9.930;2024-01-30T00:09:25;7.53;;;4.63;;
78209;SDS011;67485;48.816;9.930;2024-01-30T00:11:51;8.07;;;4.78;;
78209;SDS011;67485;48.816;9.930;2024-01-30T00:14:17;10.03;;;5.27;;
78209;SDS011;67485;48.816;9.930;2024-01-30T00:16:43;10.80;;;5.20;;
78209;SDS011;67485;48.816;9.930;2024-01-30T00:19:08;10.70;;;5.73;;
78209;SDS011;67485;48.816;9.930;2024-01-30T00:21:34;9.73;;;5.13;;
78209;SDS011;67485;48.816;9.930;2024-01-30T00:23:59;8.32;;;4.78;;
78209;SDS011;67485;48.816;9.930;2024-01-30T00:26:25;7.30;;;4.40;;
78209;SDS011;67485;48.816;9.930;2024-01-30T00:28:51;12.02;;;4.90;;
78209;SDS011;67485;48.816;9.930;2024-01-30T00:31:16;8.20;;;4.70;;
78209;SDS011;67485;48.816;9.930;2024-01-30T00:33:43;10.38;;;4.90;;
78209;SDS011;67485;48.816;9.930;2024-01-30T00:36:09;9.90;;;5.23;;
78209;SDS011;67485;48.816;9.930;2024-01-30T00:38:35;9.80;;;5.38;;
78209;SDS011;67485;48.816;9.930;2024-01-30T00:41:01;11.88;;;5.68;;
78209;SDS011;67485;48.816;9.930;2024-01-30T00:43:27;9.80;;;5.55;;
78209;SDS011;67485;48.816;9.930;2024-01-30T00:45:53;9.40;;;5.70;;
78209;SDS011;67485;48.816;9.930;2024-01-30T00:48:19;11.07;;;6.32;;
78209;SDS011;67485;48.816;9.930;2024-01-30T00:50:46;11.93;;;5.75;;
78209;SDS011;67485;48.816;9.930;2024-01-30T00:53:12;9.48;;;5.18;;
78209;SDS011;67485;48.816;9.930;2024-01-30T00:55:39;9.88;;;5.25;;
78209;SDS011;67485;48.816;9.930;2024-01-30T00:58:05;9.70;;;4.70;;
78209;SDS011;67485;48.816;9.930;2024-01-30T01:00:31;8.57;;;4.78;;
78209;SDS011;67485;48.816;9.930;2024-01-30T01:02:58;10.43;;;4.72;;
78209;SDS011;67485;48.816;9.930;2024-01-30T01:05:24;10.47;;;4.30;;
78209;SDS011;67485;48.816;9.930;2024-01-30T01:07:51;8.63;;;4.50;;
78209;SDS011;67485;48.816;9.930;2024-01-30T01:10:17;8.15;;;4.57;;
78209;SDS011;67485;48.816;9.930;2024-01-30T01:12:43;7.75;;;4.35;;
78209;SDS011;67485;48.816;9.930;2024-01-30T01:15:10;9.77;;;4.20;;
78209;SDS011;67485;48.816;9.930;2024-01-30T01:17:36;7.30;;;4.20;;
78209;SDS011;67485;48.816;9.930;2024-01-30T01:20:03;7.65;;;4.05;;
78209;SDS011;67485;48.816;9.930;2024-01-30T01:22:30;8.95;;;4.72;;
78209;SDS011;67485;48.816;9.930;2024-01-30T01:24:56;9.13;;;4.40;;
78209;SDS011;67485;48.816;9.930;2024-01-30T01:27:22;11.10;;;5.00;;
78209;SDS011;67485;48.816;9.930;2024-01-30T01:29:47;8.93;;;4.93;;
78209;SDS011;67485;48.816;9.930;2024-01-30T01:32:13;9.55;;;5.30;;
78209;SDS011;67485;48.816;9.930;2024-01-30T01:34:39;8.97;;;4.90;;
78209;SDS011;67485;48.816;9.930;2024-01-30T01:37:04;7.97;;;4.78;;
78209;SDS011;67485;48.816;9.930;2024-01-30T01:39:30;9.43;;;4.22;;
78209;SDS011;67485;48.816;9.930;2024-01-30T01:41:56;8.15;;;3.90;;
78209;SDS011;67485;48.816;9.930;2024-01-30T01:44:22;7.17;;;4.20;;
78209;SDS011;67485;48.816;9.930;2024-01-30T01:46:48;8.63;;;4.50;;
78209;SDS011;67485;48.816;9.930;2024-01-30T01:49:14;7.57;;;4.25;;
78209;SDS011;67485;48.816;9.930;2024-01-30T01:51:40;8.82;;;4.30;;
78209;SDS011;67485;48.816;9.930;2024-01-30T01:54:07;10.60;;;4.90;;
78209;SDS011;67485;48.816;9.930;2024-01-30T01:56:34;7.32;;;4.32;;
78209;SDS011;67485;48.816;9.930;2024-01-30T01:59:05;6.75;;;3.97;;
78209;SDS011;67485;48.816;9.930;2024-01-30T02:01:33;7.80;;;4.20;;
78209;SDS011;67485;48.816;9.930;2024-01-30T02:03:59;7.25;;;3.60;;
78209;SDS011;67485;48.816;9.930;2024-01-30T02:06:26;6.90;;;3.87;;
78209;SDS011;67485;48.816;9.930;2024-01-30T02:08:52;8.05;;;4.05;;
78209;SDS011;67485;48.816;9.930;2024-01-30T02:11:19;8.95;;;5.03;;
78209;SDS011;67485;48.816;9.930;2024-01-30T02:13:46;8.35;;;5.03;;
78209;SDS011;67485;48.816;9.930;2024-01-30T02:16:11;8.48;;;4.82;;
78209;SDS011;67485;48.816;9.930;2024-01-30T02:18:37;10.87;;;4.87;;
78209;SDS011;67485;48.816;9.930;2024-01-30T02:21:16;10.65;;;5.25;;
78209;SDS011;67485;48.816;9.930;2024-01-30T02:23:48;7.95;;;5.20;;
78209;SDS011;67485;48.816;9.930;2024-01-30T02:26:15;7.63;;;4.60;;
78209;SDS011;67485;48.816;9.930;2024-01-30T02:28:41;11.48;;;4.68;;
78209;SDS011;67485;48.816;9.930;2024-01-30T02:31:07;9.37;;;4.93;;
78209;SDS011;67485;48.816;9.930;2024-01-30T02:33:33;9.52;;;5.10;;
78209;SDS011;67485;48.816;9.930;2024-01-30T02:35:58;7.97;;;4.37;;
78209;SDS011;67485;48.816;9.930;2024-01-30T02:38:24;7.20;;;3.97;;
78209;SDS011;67485;48.816;9.930;2024-01-30T02:40:52;7.43;;;4.20;;
78209;SDS011;67485;48.816;9.930;2024-01-30T02:43:18;7.70;;;4.20;;
78209;SDS011;67485;48.816;9.930;2024-01-30T02:45:43;8.40;;;4.55;;
78209;SDS011;67485;48.816;9.930;2024-01-30T02:48:09;8.45;;;4.40;;
78209;SDS011;67485;48.816;9.930;2024-01-30T02:50:35;7.65;;;4.53;;
78209;SDS011;67485;48.816;9.930;2024-01-30T02:53:00;8.43;;;4.47;;
78209;SDS011;67485;48.816;9.930;2024-01-30T02:55:26;10.05;;;4.68;;
78209;SDS011;67485;48.816;9.930;2024-01-30T02:57:52;9.50;;;4.63;;
78209;SDS011;67485;48.816;9.930;2024-01-30T03:00:18;9.07;;;4.95;;
78209;SDS011;67485;48.816;9.930;2024-01-30T03:02:45;9.02;;;4.80;;
78209;SDS011;67485;48.816;9.930;2024-01-30T03:05:10;8.40;;;4.70;;
78209;SDS011;67485;48.816;9.930;2024-01-30T03:07:36;10.20;;;4.50;;
78209;SDS011;67485;48.816;9.930;2024-01-30T03:10:02;8.67;;;4.60;;
78209;SDS011;67485;48.816;9.930;2024-01-30T03:12:29;11.07;;;4.70;;
78209;SDS011;67485;48.816;9.930;2024-01-30T03:14:55;8.88;;;4.68;;
78209;SDS011;67485;48.816;9.930;2024-01-30T03:17:21;11.27;;;4.93;;
78209;SDS011;67485;48.816;9.930;2024-01-30T03:19:46;7.83;;;4.10;;
78209;SDS011;67485;48.816;9.930;2024-01-30T03:22:12;7.28;;;4.25;;
78209;SDS011;67485;48.816;9.930;2024-01-30T03:24:38;7.87;;;4.00;;
78209;SDS011;67485;48.816;9.930;2024-01-30T03:27:03;10.80;;;4.25;;
78209;SDS011;67485;48.816;9.930;2024-01-30T03:29:29;7.47;;;4.57;;
78209;SDS011;67485;48.816;9.930;2024-01-30T03:31:55;7.72;;;4.20;;
78209;SDS011;67485;48.816;9.930;2024-01-30T03:34:20;7.67;;;4.03;;
78209;SDS011;67485;48.816;9.930;2024-01-30T03:36:46;8.53;;;4.43;;
78209;SDS011;67485;48.816;9.930;2024-01-30T03:39:12;7.22;;;4.40;;
78209;SDS011;67485;48.816;9.930;2024-01-30T03:41:37;9.07;;;4.90;;
78209;SDS011;67485;48.816;9.930;2024-01-30T03:44:03;8.32;;;4.55;;
78209;SDS011;67485;48.816;9.930;2024-01-30T03:46:29;10.47;;;4.97;;
78209;SDS011;67485;48.816;9.930;2024-01-30T03:48:54;9.52;;;4.63;;
78209;SDS011;67485;48.816;9.930;2024-01-30T03:51:20;7.73;;;4.40;;
78209;SDS011;67485;48.816;9.930;2024-01-30T03:53:45;7.40;;;3.93;;
78209;SDS011;67485;48.816;9.930;2024-01-30T03:56:11;9.10;;;4.00;;
78209;SDS011;67485;48.816;9.930;2024-01-30T03:58:38;6.70;;;3.65;;
78209;SDS011;67485;48.816;9.930;2024-01-30T04:01:04;7.77;;;3.93;;
78209;SDS011;67485;48.816;9.930;2024-01-30T04:03:30;8.23;;;4.35;;
78209;SDS011;67485;48.816;9.930;2024-01-30T04:05:56;9.30;;;4.17;;
78209;SDS011;67485;48.816;9.930;2024-01-30T04:08:21;7.07;;;4.07;;
78209;SDS011;67485;48.816;9.930;2024-01-30T04:10:47;7.47;;;4.30;;
78209;SDS011;67485;48.816;9.930;2024-01-30T04:13:13;10.95;;;4.13;;
78209;SDS011;67485;48.816;9.930;2024-01-30T04:15:39;7.45;;;4.63;;
78209;SDS011;67485;48.816;9.930;2024-01-30T04:18:05;9.60;;;4.38;;
78209;SDS011;67485;48.816;9.930;2024-01-30T04:20:31;7.90;;;3.88;;
78209;SDS011;67485;48.816;9.930;2024-01-30T04:22:56;9.80;;;4.13;;
78209;SDS011;67485;48.816;9.930;2024-01-30T04:25:22;7.85;;;3.92;;
78209;SDS011;67485;48.816;9.930;2024-01-30T04:27:48;8.32;;;3.95;;
78209;SDS011;67485;48.816;9.930;2024-01-30T04:30:14;6.00;;;3.85;;
78209;SDS011;67485;48.816;9.930;2024-01-30T04:32:40;8.13;;;4.15;;
78209;SDS011;67485;48.816;9.930;2024-01-30T04:35:06;8.25;;;4.22;;
78209;SDS011;67485;48.816;9.930;2024-01-30T04:37:32;6.90;;;3.93;;
78209;SDS011;67485;48.816;9.930;2024-01-30T04:39:58;7.68;;;4.20;;
78209;SDS011;67485;48.816;9.930;2024-01-30T04:42:23;10.20;;;4.43;;
78209;SDS011;67485;48.816;9.930;2024-01-30T04:44:49;8.93;;;4.03;;
78209;SDS011;67485;48.816;9.930;2024-01-30T04:47:15;8.25;;;4.20;;
78209;SDS011;67485;48.816;9.930;2024-01-30T04:49:41;7.13;;;4.10;;
78209;SDS011;67485;48.816;9.930;2024-01-30T04:52:08;7.45;;;4.38;;
78209;SDS011;67485;48.816;9.930;2024-01-30T04:54:34;10.13;;;4.30;;
78209;SDS011;67485;48.816;9.930;2024-01-30T04:57:01;9.73;;;4.18;;
78209;SDS011;67485;48.816;9.930;2024-01-30T04:59:27;7.15;;;4.25;;
78209;SDS011;67485;48.816;9.930;2024-01-30T05:01:53;6.27;;;4.00;;
78209;SDS011;67485;48.816;9.930;2024-01-30T05:04:19;8.30;;;4.03;;
78209;SDS011;67485;48.816;9.930;2024-01-30T05:06:45;7.35;;;3.75;;
78209;SDS011;67485;48.816;9.930;2024-01-30T05:09:11;6.80;;;3.42;;
78209;SDS011;67485;48.816;9.930;2024-01-30T05:11:37;8.13;;;3.50;;
78209;SDS011;67485;48.816;9.930;2024-01-30T05:14:06;6.65;;;3.72;;
78209;SDS011;67485;48.816;9.930;2024-01-30T05:16:32;6.57;;;3.35;;
78209;SDS011;67485;48.816;9.930;2024-01-30T05:18:58;5.57;;;3.53;;
78209;SDS011;67485;48.816;9.930;2024-01-30T05:21:24;5.88;;;3.25;;
78209;SDS011;67485;48.816;9.930;2024-01-30T05:23:50;6.65;;;3.15;;
78209;SDS011;67485;48.816;9.930;2024-01-30T05:26:16;9.45;;;3.40;;
78209;SDS011;67485;48.816;9.930;2024-01-30T05:28:42;6.57;;;3.60;;
78209;SDS011;67485;48.816;9.930;2024-01-30T05:31:10;8.07;;;3.30;;
78209;SDS011;67485;48.816;9.930;2024-01-30T05:33:36;6.38;;;3.33;;
78209;SDS011;67485;48.816;9.930;2024-01-30T05:36:02;6.23;;;3.07;;
78209;SDS011;67485;48.816;9.930;2024-01-30T05:38:29;6.32;;;3.00;;
78209;SDS011;67485;48.816;9.930;2024-01-30T05:40:55;7.25;;;3.08;;
78209;SDS011;67485;48.816;9.930;2024-01-30T05:43:23;8.43;;;3.35;;
78209;SDS011;67485;48.816;9.930;2024-01-30T05:45:49;6.68;;;3.28;;
78209;SDS011;67485;48.816;9.930;2024-01-30T05:48:15;6.80;;;2.90;;
78209;SDS011;67485;48.816;9.930;2024-01-30T05:50:41;6.18;;;3.30;;
78209;SDS011;67485;48.816;9.930;2024-01-30T05:53:06;6.90;;;3.57;;
78209;SDS011;67485;48.816;9.930;2024-01-30T05:55:32;6.20;;;3.58;;
78209;SDS011;67485;48.816;9.930;2024-01-30T05:57:58;7.93;;;3.43;;
78209;SDS011;67485;48.816;9.930;2024-01-30T06:00:23;6.20;;;3.27;;
78209;SDS011;67485;48.816;9.930;2024-01-30T06:02:49;8.77;;;3.90;;
78209;SDS011;67485;48.816;9.930;2024-01-30T06:05:15;10.47;;;4.10;;
78209;SDS011;67485;48.816;9.930;2024-01-30T06:07:40;10.55;;;3.90;;
78209;SDS011;67485;48.816;9.930;2024-01-30T06:10:06;16.17;;;4.13;;
78209;SDS011;67485;48.816;9.930;2024-01-30T06:12:34;6.97;;;3.50;;
78209;SDS011;67485;48.816;9.930;2024-01-30T06:15:00;10.55;;;4.35;;
78209;SDS011;67485;48.816;9.930;2024-01-30T06:17:26;9.45;;;4.63;;
78209;SDS011;67485;48.816;9.930;2024-01-30T06:19:52;10.48;;;4.57;;
78209;SDS011;67485;48.816;9.930;2024-01-30T06:22:17;12.33;;;4.43;;
78209;SDS011;67485;48.816;9.930;2024-01-30T06:24:43;11.40;;;4.22;;
78209;SDS011;67485;48.816;9.930;2024-01-30T06:27:10;11.35;;;4.30;;
78209;SDS011;67485;48.816;9.930;2024-01-30T06:29:36;9.37;;;4.40;;
78209;SDS011;67485;48.816;9.930;2024-01-30T06:32:01;10.80;;;4.10;;
78209;SDS011;67485;48.816;9.930;2024-01-30T06:34:27;7.23;;;3.87;;
78209;SDS011;67485;48.816;9.930;2024-01-30T06:36:53;10.15;;;4.18;;
78209;SDS011;67485;48.816;9.930;2024-01-30T06:39:19;8.80;;;3.78;;
78209;SDS011;67485;48.816;9.930;2024-01-30T06:41:44;7.47;;;4.00;;
78209;SDS011;67485;48.816;9.930;2024-01-30T06:44:12;8.25;;;3.60;;
78209;SDS011;67485;48.816;9.930;2024-01-30T06:46:38;10.18;;;4.55;;
78209;SDS011;67485;48.816;9.930;2024-01-30T06:49:04;7.77;;;4.20;;
78209;SDS011;67485;48.816;9.930;2024-01-30T06:51:30;13.40;;;4.80;;
78209;SDS011;67485;48.816;9.930;2024-01-30T06:53:55;9.07;;;4.93;;
78209;SDS011;67485;48.816;9.930;2024-01-30T06:56:21;7.50;;;4.10;;
78209;SDS011;67485;48.816;9.930;2024-01-30T06:58:48;10.60;;;4.28;;
78209;SDS011;67485;48.816;9.930;2024-01-30T07:01:14;8.00;;;4.22;;
78209;SDS011;67485;48.816;9.930;2024-01-30T07:03:40;8.63;;;4.63;;
78209;SDS011;67485;48.816;9.930;2024-01-30T07:06:06;11.43;;;4.72;;
78209;SDS011;67485;48.816;9.930;2024-01-30T07:08:31;7.50;;;4.33;;
78209;SDS011;67485;48.816;9.930;2024-01-30T07:10:57;11.00;;;5.65;;
78209;SDS011;67485;48.816;9.930;2024-01-30T07:13:23;13.20;;;6.77;;
78209;SDS011;67485;48.816;9.930;2024-01-30T07:15:48;10.40;;;5.47;;
78209;SDS011;67485;48.816;9.930;2024-01-30T07:18:15;9.53;;;4.87;;
78209;SDS011;67485;48.816;9.930;2024-01-30T07:20:40;9.15;;;4.90;;
78209;SDS011;67485;48.816;9.930;2024-01-30T07:23:12;9.60;;;4.22;;
78209;SDS011;67485;48.816;9.930;2024-01-30T07:25:41;9.32;;;4.82;;
78209;SDS011;67485;48.816;9.930;2024-01-30T07:28:07;8.60;;;5.00;;
78209;SDS011;67485;48.816;9.930;2024-01-30T07:30:35;10.57;;;5.53;;
78209;SDS011;67485;48.816;9.930;2024-01-30T07:33:00;9.57;;;5.33;;
78209;SDS011;67485;48.816;9.930;2024-01-30T07:35:26;11.52;;;5.97;;
78209;SDS011;67485;48.816;9.930;2024-01-30T07:37:52;12.40;;;5.97;;
78209;SDS011;67485;48.816;9.930;2024-01-30T07:40:17;11.68;;;6.30;;
78209;SDS011;67485;48.816;9.930;2024-01-30T07:42:43;11.83;;;6.40;;
78209;SDS011;67485;48.816;9.930;2024-01-30T07:45:09;10.75;;;6.05;;
78209;SDS011;67485;48.816;9.930;2024-01-30T07:47:35;10.97;;;5.77;;
78209;SDS011;67485;48.816;9.930;2024-01-30T07:50:00;10.00;;;5.53;;
78209;SDS011;67485;48.816;9.930;2024-01-30T07:52:26;11.27;;;5.93;;
78209;SDS011;67485;48.816;9.930;2024-01-30T07:54:52;8.55;;;4.93;;
78209;SDS011;67485;48.816;9.930;2024-01-30T07:57:18;10.02;;;4.90;;
78209;SDS011;67485;48.816;9.930;2024-01-30T07:59:44;9.77;;;4.55;;
78209;SDS011;67485;48.816;9.930;2024-01-30T08:02:12;9.93;;;5.15;;
78209;SDS011;67485;48.816;9.930;2024-01-30T08:04:38;12.77;;;5.30;;
78209;SDS011;67485;48.816;9.930;2024-01-30T08:07:04;11.02;;;4.72;;
78209;SDS011;67485;48.816;9.930;2024-01-30T08:09:29;10.87;;;5.03;;
78209;SDS011;67485;48.816;9.930;2024-01-30T08:11:55;12.93;;;5.75;;
78209;SDS011;67485;48.816;9.930;2024-01-30T08:14:21;11.40;;;6.17;;
78209;SDS011;67485;48.816;9.930;2024-01-30T08:16:46;11.23;;;5.30;;
78209;SDS011;67485;48.816;9.930;2024-01-30T08:19:12;8.27;;;4.27;;
78209;SDS011;67485;48.816;9.930;2024-01-30T08:21:38;11.77;;;5.55;;
78209;SDS011;67485;48.816;9.930;2024-01-30T08:24:04;13.35;;;5.47;;
78209;SDS011;67485;48.816;9.930;2024-01-30T08:26:31;8.33;;;5.00;;
78209;SDS011;67485;48.816;9.930;2024-01-30T08:28:57;9.95;;;5.18;;
78209;SDS011;67485;48.816;9.930;2024-01-30T08:31:22;10.00;;;5.53;;
78209;SDS011;67485;48.816;9.930;2024-01-30T08:33:48;13.47;;;5.53;;
78209;SDS011;67485;48.816;9.930;2024-01-30T08:36:15;11.83;;;5.50;;
78209;SDS011;67485;48.816;9.930;2024-01-30T08:38:41;10.15;;;4.90;;
78209;SDS011;67485;48.816;9.930;2024-01-30T08:41:07;8.88;;;4.95;;
78209;SDS011;67485;48.816;9.930;2024-01-30T08:43:32;10.43;;;5.03;;
78209;SDS011;67485;48.816;9.930;2024-01-30T08:46:02;14.70;;;5.47;;
78209;SDS011;67485;48.816;9.930;2024-01-30T08:48:28;16.83;;;4.70;;
78209;SDS011;67485;48.816;9.930;2024-01-30T08:50:53;16.30;;;5.10;;
78209;SDS011;67485;48.816;9.930;2024-01-30T08:53:19;10.43;;;5.00;;
78209;SDS011;67485;48.816;9.930;2024-01-30T08:55:45;8.97;;;4.73;;
78209;SDS011;67485;48.816;9.930;2024-01-30T08:58:11;9.18;;;4.93;;
78209;SDS011;67485;48.816;9.930;2024-01-30T09:00:36;11.27;;;4.60;;
78209;SDS011;67485;48.816;9.930;2024-01-30T09:03:03;16.67;;;5.75;;
78209;SDS011;67485;48.816;9.930;2024-01-30T09:05:29;9.77;;;4.75;;
78209;SDS011;67485;48.816;9.930;2024-01-30T09:07:55;9.57;;;5.40;;
78209;SDS011;67485;48.816;9.930;2024-01-30T09:10:21;10.82;;;5.13;;
78209;SDS011;67485;48.816;9.930;2024-01-30T09:12:47;9.50;;;5.05;;
78209;SDS011;67485;48.816;9.930;2024-01-30T09:15:13;7.27;;;4.03;;
78209;SDS011;67485;48.816;9.930;2024-01-30T09:17:39;10.55;;;4.82;;
78209;SDS011;67485;48.816;9.930;2024-01-30T09:20:05;10.93;;;4.80;;
78209;SDS011;67485;48.816;9.930;2024-01-30T09:22:31;11.48;;;5.05;;
78209;SDS011;67485;48.816;9.930;2024-01-30T09:24:57;10.13;;;5.20;;
78209;SDS011;67485;48.816;9.930;2024-01-30T09:27:23;15.05;;;5.22;;
78209;SDS011;67485;48.816;9.930;2024-01-30T09:29:49;8.80;;;5.10;;
78209;SDS011;67485;48.816;9.930;2024-01-30T09:32:15;11.90;;;4.90;;
78209;SDS011;67485;48.816;9.930;2024-01-30T09:34:41;10.35;;;5.35;;
78209;SDS011;67485;48.816;9.930;2024-01-30T09:37:07;11.43;;;4.87;;
78209;SDS011;67485;48.816;9.930;2024-01-30T09:39:33;15.70;;;5.57;;
78209;SDS011;67485;48.816;9.930;2024-01-30T09:42:05;15.13;;;6.15;;
78209;SDS011;67485;48.816;9.930;2024-01-30T09:44:44;10.20;;;5.63;;
78209;SDS011;67485;48.816;9.930;2024-01-30T09:47:11;17.83;;;6.82;;
78209;SDS011;67485;48.816;9.930;2024-01-30T09:49:37;14.45;;;7.50;;
78209;SDS011;67485;48.816;9.930;2024-01-30T09:52:03;18.33;;;8.57;;
78209;SDS011;67485;48.816;9.930;2024-01-30T09:54:30;18.00;;;8.88;;
78209;SDS011;67485;48.816;9.930;2024-01-30T09:56:59;16.13;;;8.93;;
78209;SDS011;67485;48.816;9.930;2024-01-30T09:59:25;23.58;;;11.10;;
78209;SDS011;67485;48.816;9.930;2024-01-30T10:01:50;12.20;;;5.93;;
78209;SDS011;67485;48.816;9.930;2024-01-30T10:04:17;16.40;;;5.47;;
78209;SDS011;67485;48.816;9.930;2024-01-30T10:06:42;12.45;;;5.32;;
78209;SDS011;67485;48.816;9.930;2024-01-30T10:09:08;14.70;;;4.80;;
78209;SDS011;67485;48.816;9.930;2024-01-30T10:11:35;6.65;;;4.10;;
78209;SDS011;67485;48.816;9.930;2024-01-30T10:14:01;5.75;;;3.78;;
78209;SDS011;67485;48.816;9.930;2024-01-30T10:16:27;11.40;;;4.37;;
78209;SDS011;67485;48.816;9.930;2024-01-30T10:18:53;8.95;;;4.20;;
78209;SDS011;67485;48.816;9.930;2024-01-30T10:21:19;9.55;;;4.72;;
78209;SDS011;67485;48.816;9.930;2024-01-30T10:23:44;8.27;;;4.73;;
78209;SDS011;67485;48.816;9.930;2024-01-30T10:26:10;8.57;;;5.00;;
78209;SDS011;67485;48.816;9.930;2024-01-30T10:28:36;11.33;;;5.23;;
78209;SDS011;67485;48.816;9.930;2024-01-30T10:31:02;13.02;;;4.35;;
78209;SDS011;67485;48.816;9.930;2024-01-30T10:33:31;12.07;;;4.68;;
78209;SDS011;67485;48.816;9.930;2024-01-30T10:36:00;9.03;;;4.53;;
78209;SDS011;67485;48.816;9.930;2024-01-30T10:38:30;7.53;;;4.00;;
78209;SDS011;67485;48.816;9.930;2024-01-30T10:40:57;7.72;;;3.80;;
78209;SDS011;67485;48.816;9.930;2024-01-30T10:43:26;6.77;;;3.90;;
78209;SDS011;67485;48.816;9.930;2024-01-30T10:45:57;6.45;;;3.83;;
78209;SDS011;67485;48.816;9.930;2024-01-30T10:48:32;13.48;;;5.43;;
78209;SDS011;67485;48.816;9.930;2024-01-30T10:51:05;6.78;;;3.70;;
78209;SDS011;67485;48.816;9.930;2024-01-30T10:53:31;7.65;;;3.97;;
78209;SDS011;67485;48.816;9.930;2024-01-30T10:55:57;9.70;;;3.67;;
78209;SDS011;67485;48.816;9.930;2024-01-30T10:58:26;6.65;;;3.80;;
78209;SDS011;67485;48.816;9.930;2024-01-30T11:00:52;8.77;;;3.63;;
78209;SDS011;67485;48.816;9.930;2024-01-30T11:03:18;4.97;;;3.20;;
78209;SDS011;67485;48.816;9.930;2024-01-30T11:05:48;5.90;;;3.20;;
78209;SDS011;67485;48.816;9.930;2024-01-30T11:08:15;4.55;;;3.00;;
78209;SDS011;67485;48.816;9.930;2024-01-30T11:10:49;10.73;;;3.60;;
78209;SDS011;67485;48.816;9.930;2024-01-30T11:13:15;6.47;;;3.35;;
78209;SDS011;67485;48.816;9.930;2024-01-30T11:15:40;6.27;;;3.10;;
78209;SDS011;67485;48.816;9.930;2024-01-30T11:18:06;8.43;;;3.17;;
78209;SDS011;67485;48.816;9.930;2024-01-30T11:20:32;5.23;;;3.30;;
78209;SDS011;67485;48.816;9.930;2024-01-30T11:22:58;5.85;;;2.88;;
78209;SDS011;67485;48.816;9.930;2024-01-30T11:25:27;7.38;;;2.70;;
78209;SDS011;67485;48.816;9.930;2024-01-30T11:27:55;5.97;;;3.00;;
78209;SDS011;67485;48.816;9.930;2024-01-30T11:33:04;5.75;;;2.60;;
78209;SDS011;67485;48.816;9.930;2024-01-30T11:35:30;4.47;;;2.80;;
78209;SDS011;67485;48.816;9.930;2024-01-30T11:37:58;4.05;;;2.42;;
78209;SDS011;67485;48.816;9.930;2024-01-30T11:40:26;4.10;;;2.40;;
78209;SDS011;67485;48.816;9.930;2024-01-30T11:42:53;5.05;;;2.42;;
78209;SDS011;67485;48.816;9.930;2024-01-30T11:45:20;4.43;;;2.42;;
78209;SDS011;67485;48.816;9.930;2024-01-30T11:47:46;4.50;;;2.40;;
78209;SDS011;67485;48.816;9.930;2024-01-30T11:50:12;4.03;;;2.40;;
78209;SDS011;67485;48.816;9.930;2024-01-30T11:52:38;5.05;;;2.30;;
78209;SDS011;67485;48.816;9.930;2024-01-30T11:55:04;5.65;;;2.10;;
78209;SDS011;67485;48.816;9.930;2024-01-30T11:57:30;3.90;;;2.60;;
78209;SDS011;67485;48.816;9.930;2024-01-30T11:59:55;3.70;;;2.40;;
78209;SDS011;67485;48.816;9.930;2024-01-30T12:02:21;4.93;;;2.40;;
78209;SDS011;67485;48.816;9.930;2024-01-30T12:04:47;4.68;;;2.28;;
78209;SDS011;67485;48.816;9.930;2024-01-30T12:07:13;4.88;;;2.53;;
78209;SDS011;67485;48.816;9.930;2024-01-30T12:09:41;5.87;;;2.30;;
78209;SDS011;67485;48.816;9.930;2024-01-30T12:12:07;4.57;;;2.28;;
78209;SDS011;67485;48.816;9.930;2024-01-30T12:14:40;5.30;;;2.15;;
78209;SDS011;67485;48.816;9.930;2024-01-30T12:17:05;4.38;;;2.30;;
78209;SDS011;67485;48.816;9.930;2024-01-30T12:19:33;6.88;;;2.50;;
78209;SDS011;67485;48.816;9.930;2024-01-30T12:21:59;4.33;;;2.23;;
78209;SDS011;67485;48.816;9.930;2024-01-30T12:24:25;3.83;;;1.80;;
78209;SDS011;67485;48.816;9.930;2024-01-30T12:26:52;5.50;;;2.00;;
78209;SDS011;67485;48.816;9.930;2024-01-30T12:29:22;7.63;;;2.50;;
78209;SDS011;67485;48.816;9.930;2024-01-30T12:31:48;5.28;;;1.88;;
78209;SDS011;67485;48.816;9.930;2024-01-30T12:34:18;5.40;;;2.00;;
78209;SDS011;67485;48.816;9.930;2024-01-30T12:36:46;5.50;;;1.90;;
78209;SDS011;67485;48.816;9.930;2024-01-30T12:39:14;3.92;;;2.15;;
78209;SDS011;67485;48.816;9.930;2024-01-30T12:41:40;3.65;;;2.08;;
78209;SDS011;67485;48.816;9.930;2024-01-30T12:44:06;4.78;;;2.10;;
78209;SDS011;67485;48.816;9.930;2024-01-30T12:46:34;6.80;;;2.23;;
78209;SDS011;67485;48.816;9.930;2024-01-30T12:49:00;4.25;;;2.10;;
78209;SDS011;67485;48.816;9.930;2024-01-30T12:51:26;3.90;;;2.40;;
78209;SDS011;67485;48.816;9.930;2024-01-30T12:53:51;6.10;;;2.30;;
78209;SDS011;67485;48.816;9.930;2024-01-30T12:56:17;4.20;;;2.13;;
78209;SDS011;67485;48.816;9.930;2024-01-30T12:58:43;5.37;;;2.17;;
78209;SDS011;67485;48.816;9.930;2024-01-30T13:01:09;3.50;;;1.98;;
78209;SDS011;67485;48.816;9.930;2024-01-30T13:03:35;2.93;;;1.73;;
78209;SDS011;67485;48.816;9.930;2024-01-30T13:06:01;2.92;;;1.83;;
78209;SDS011;67485;48.816;9.930;2024-01-30T13:08:26;3.47;;;1.80;;
78209;SDS011;67485;48.816;9.930;2024-01-30T13:10:52;4.17;;;1.80;;
78209;SDS011;67485;48.816;9.930;2024-01-30T13:13:18;4.50;;;2.00;;
78209;SDS011;67485;48.816;9.930;2024-01-30T13:15:43;3.43;;;1.70;;
78209;SDS011;67485;48.816;9.930;2024-01-30T13:18:09;4.00;;;1.73;;
78209;SDS011;67485;48.816;9.930;2024-01-30T13:20:35;5.15;;;2.10;;
78209;SDS011;67485;48.816;9.930;2024-01-30T13:23:01;4.10;;;1.80;;
78209;SDS011;67485;48.816;9.930;2024-01-30T13:25:27;3.00;;;1.65;;
78209;SDS011;67485;48.816;9.930;2024-01-30T13:27:52;3.37;;;1.70;;
78209;SDS011;67485;48.816;9.930;2024-01-30T13:30:18;5.38;;;1.95;;
78209;SDS011;67485;48.816;9.930;2024-01-30T13:32:44;3.60;;;1.80;;
78209;SDS011;67485;48.816;9.930;2024-01-30T13:35:10;3.77;;;1.70;;
78209;SDS011;67485;48.816;9.930;2024-01-30T13:37:35;3.05;;;1.80;;
78209;SDS011;67485;48.816;9.930;2024-01-30T13:40:04;4.00;;;1.90;;
78209;SDS011;67485;48.816;9.930;2024-01-30T13:42:34;3.35;;;1.65;;
78209;SDS011;67485;48.816;9.930;2024-01-30T13:45:00;3.72;;;1.90;;
78209;SDS011;67485;48.816;9.930;2024-01-30T13:47:25;3.50;;;1.70;;
78209;SDS011;67485;48.816;9.930;2024-01-30T13:49:51;3.17;;;1.88;;
78209;SDS011;67485;48.816;9.930;2024-01-30T13:52:18;4.57;;;1.90;;
78209;SDS011;67485;48.816;9.930;2024-01-30T13:54:44;4.07;;;2.00;;
78209;SDS011;67485;48.816;9.930;2024-01-30T13:57:09;3.80;;;2.00;;
78209;SDS011;67485;48.816;9.930;2024-01-30T13:59:37;3.00;;;1.63;;
78209;SDS011;67485;48.816;9.930;2024-01-30T14:02:03;2.95;;;1.58;;
78209;SDS011;67485;48.816;9.930;2024-01-30T14:04:29;3.72;;;1.80;;
78209;SDS011;67485;48.816;9.930;2024-01-30T14:06:54;3.50;;;1.83;;
78209;SDS011;67485;48.816;9.930;2024-01-30T14:09:20;5.43;;;2.30;;
78209;SDS011;67485;48.816;9.930;2024-01-30T14:11:46;5.57;;;1.73;;
78209;SDS011;67485;48.816;9.930;2024-01-30T14:14:12;4.18;;;2.17;;
78209;SDS011;67485;48.816;9.930;2024-01-30T14:16:37;3.67;;;2.00;;
78209;SDS011;67485;48.816;9.930;2024-01-30T14:19:03;4.95;;;2.05;;
78209;SDS011;67485;48.816;9.930;2024-01-30T14:21:29;4.23;;;2.20;;
78209;SDS011;67485;48.816;9.930;2024-01-30T14:23:55;4.72;;;2.22;;
78209;SDS011;67485;48.816;9.930;2024-01-30T14:26:20;6.63;;;2.30;;
78209;SDS011;67485;48.816;9.930;2024-01-30T14:28:46;5.55;;;2.30;;
78209;SDS011;67485;48.816;9.930;2024-01-30T14:31:12;3.33;;;1.67;;
78209;SDS011;67485;48.816;9.930;2024-01-30T14:33:39;3.97;;;1.95;;
78209;SDS011;67485;48.816;9.930;2024-01-30T14:36:04;5.20;;;2.08;;
78209;SDS011;67485;48.816;9.930;2024-01-30T14:38:30;4.37;;;2.10;;
78209;SDS011;67485;48.816;9.930;2024-01-30T14:40:56;7.00;;;2.50;;